EGSC - Cambridge
Distance from station: E 5mi, 14km
Updated: 10/17/2017 9:50am
NOT Current
Few Clouds
Few Clouds
 Wind from SSW
Wind: SSW 6 mph , 9 km/h
Temperature: 54°F , 12°C
Dew Point: 48°F , 9°C
Humidity: 82%
Barometer: 30.03 inHg , 1017 hPa
Clouds: Few Clouds
Visibility: 6 miles , 10 km
Cloud details: Few Clouds 4600 ft
2017/10/17 16:50 EGSC 171650Z 20005KT 9999 FEW046 12/09 Q1017